WetterOnline ( https://www.wetteronline.de )

Wetter aktuell Theilenhofen

Aktuelles Wetter: Weißenburg (424m)

6-stündlich | Neueste Meldungen
Ortszeit Temperatur Wetter
Mo, 17.06. 2:00 11.2° C Nebel
So, 16.06. 20:00 16.6° C bedeckt
So, 16.06. 14:00 16.5° C Sprühregen
So, 16.06. 8:00 14.8° C Sprühregen
So, 16.06. 2:00 16.3° C Regen
Sa, 15.06. 20:00 21.0° C bewölkt
Sa, 15.06. 14:00 22.8° C bewölkt
Sa, 15.06. 8:00 21.9° C wolkenlos
Ortszeit Temperatur Wetter
Mo, 17.06. 3:00 11.1° C Nebel
Mo, 17.06. 2:50 11.1° C Nebel
Mo, 17.06. 2:40 11.0° C Nebel
Mo, 17.06. 2:30 11.3° C leicht bewölkt
Mo, 17.06. 2:20 11.3° C leicht bewölkt
Mo, 17.06. 2:10 11.2° C Nebel
Mo, 17.06. 2:00 11.2° C Nebel
Mo, 17.06. 1:30 11.7° C Nebel
Mo, 17.06. 1:00 11.9° C Nebel
Mo, 17.06. 0:30 12.2° C wolkenlos
Mo, 17.06. 0:00 12.5° C wolkenlos
Ortszeit Relative Feuchte Sichtweite
Mo, 17.06. 2:00 100% 100 m
So, 16.06. 20:00 82% 45 km
So, 16.06. 14:00 85% 30 km
So, 16.06. 8:00 94% 17 km
So, 16.06. 2:00 96% 4.6 km
Sa, 15.06. 20:00 59% 70 km
Sa, 15.06. 14:00 55% 55 km
Sa, 15.06. 8:00 55% 23 km
Ortszeit Relative Feuchte Sichtweite
Mo, 17.06. 3:00 100% 0.3 km
Mo, 17.06. 2:50 100% -
Mo, 17.06. 2:40 100% -
Mo, 17.06. 2:30 100% 1.7 km
Mo, 17.06. 2:20 100% -
Mo, 17.06. 2:10 100% -
Mo, 17.06. 2:00 100% 100 m
Mo, 17.06. 1:30 100% 0.5 km
Mo, 17.06. 1:00 99% 0.2 km
Mo, 17.06. 0:30 99% 3.6 km
Mo, 17.06. 0:00 98% 6 km
Ortszeit Niederschlagsmenge Niederschlagsart
Mo, 17.06. 2:00 0.0 l/m2 in 6 Std. -
So, 16.06. 20:00 2 l/m2 in 12 Std. Regen
So, 16.06. 14:00 2 l/m2 in 6 Std. Regen
So, 16.06. 8:00 22 l/m2 in 12 Std. Regen
So, 16.06. 2:00 4 l/m2 in 6 Std. Regen
Sa, 15.06. 20:00 0.0 l/m2 in 12 Std. -
Sa, 15.06. 14:00 0.0 l/m2 in 6 Std. -
Sa, 15.06. 8:00 0.0 l/m2 in 12 Std. -
Ortszeit Niederschlagsmenge Niederschlagsart
Mo, 17.06. 3:00 0.0 l/m2 in 1 Std. -
Mo, 17.06. 2:50 keine Meldung -
Mo, 17.06. 2:40 keine Meldung -
Mo, 17.06. 2:30 0.0 l/m2 in 1 Std. -
Mo, 17.06. 2:20 keine Meldung -
Mo, 17.06. 2:10 keine Meldung -
Mo, 17.06. 2:00 0.0 l/m2 in 1 Std. -
Mo, 17.06. 1:30 0.0 l/m2 in 1 Std. -
Mo, 17.06. 1:00 0.0 l/m2 in 1 Std. -
Mo, 17.06. 0:30 0.0 l/m2 in 1 Std. -
Mo, 17.06. 0:00 0.0 l/m2 in 1 Std. -
Ortszeit Stärke Spitze Richtung
km/h Bft. km/h Grad Sektor
Mo, 17.06. 2:00 4 1 7 180° S
So, 16.06. 20:00 4 1 25 360° N
So, 16.06. 14:00 11 2 25 330° NW
So, 16.06. 8:00 14 3 25 280° W
So, 16.06. 2:00 14 3 25 210° SW
Sa, 15.06. 20:00 14 3 40 310° NW
Sa, 15.06. 14:00 14 3 43 310° NW
Sa, 15.06. 8:00 20 4 33 260° W
Ortszeit Stärke Spitze Richtung
km/h Bft. km/h Grad Sektor
Mo, 17.06. 3:00 4 1 7 240° SW
Mo, 17.06. 2:50 4 1 - 240° SW
Mo, 17.06. 2:40 4 1 - 220° SW
Mo, 17.06. 2:30 4 1 7 180° S
Mo, 17.06. 2:20 4 1 - 180° S
Mo, 17.06. 2:10 4 1 - 210° SW
Mo, 17.06. 2:00 4 1 7 180° S
Mo, 17.06. 1:30 6 1 7 200° S
Mo, 17.06. 1:00 4 1 7 200° S
Mo, 17.06. 0:30 4 1 4 170° S
Mo, 17.06. 0:00 4 1 7 230° SW
Ortszeit Untergrenze Bedeckung Gattung
total tief tief mittel hoch
Mo, 17.06. 2:00 <30 m 7/8 0/8 - - -
So, 16.06. 20:00 2700 m 8/8 8/8 - - -
So, 16.06. 14:00 330 m 8/8 8/8 - - -
So, 16.06. 8:00 300 m 7/8 7/8 - - -
So, 16.06. 2:00 780 m 8/8 8/8 - - -
Sa, 15.06. 20:00 3000 m 8/8 7/8 - - -
Sa, 15.06. 14:00 1290 m 7/8 7/8 - - -
Sa, 15.06. 8:00 3300 m 0/8 0/8 - - -
Ortszeit Bedeckungsgrad in Achtel und Wolkenuntergrenze
Mo, 17.06. 3:00 7(60m)
Mo, 17.06. 2:50 7(60m)
Mo, 17.06. 2:40 6(60m)
Mo, 17.06. 2:30 3(60m)
Mo, 17.06. 2:20 3(60m)
Mo, 17.06. 2:10 7(30m)
Mo, 17.06. 2:00 7(<30m)
Mo, 17.06. 1:30 6(<30m) 8(120m)
Mo, 17.06. 1:00 3(150m) 6(150m)
Mo, 17.06. 0:30 1(150m)
Mo, 17.06. 0:00 keine Wolken
Ortszeit Luftdruck NN (hPa) Tendenz (hPa in 3 Std.)
Mo, 17.06. 2:00 1023 0,0
So, 16.06. 20:00 1022 + 0,3
So, 16.06. 14:00 1022 + 0,6
So, 16.06. 8:00 1020 + 1,0
So, 16.06. 2:00 1018 + 2,8
Sa, 15.06. 20:00 1015 - 0,3
Sa, 15.06. 14:00 1015 + 0,9
Sa, 15.06. 8:00 1011 + 3,0
Ortszeit Luftdruck NN (hPa) Tendenz (hPa in 3 Std.)
Mo, 17.06. 3:00 1023 - 0,6
Mo, 17.06. 2:50 1023 keine Meldung
Mo, 17.06. 2:40 1023 keine Meldung
Mo, 17.06. 2:30 1023 - 0,1
Mo, 17.06. 2:20 1023 keine Meldung
Mo, 17.06. 2:10 1023 keine Meldung
Mo, 17.06. 2:00 1023 0,0
Mo, 17.06. 1:30 1023 0,0
Mo, 17.06. 1:00 1023 0,0
Mo, 17.06. 0:30 1023 + 0,2
Mo, 17.06. 0:00 1023 + 0,6
Ortszeit Schneehöhe (cm)
Mo, 17.06. 2:00 -
So, 16.06. 20:00 -
So, 16.06. 14:00 -
So, 16.06. 8:00 -
So, 16.06. 2:00 -
Sa, 15.06. 20:00 -
Sa, 15.06. 14:00 -
Sa, 15.06. 8:00 -
Ortszeit Schneehöhe (cm)
Mo, 17.06. 3:00 -
Mo, 17.06. 2:50 -
Mo, 17.06. 2:40 -
Mo, 17.06. 2:30 -
Mo, 17.06. 2:20 -
Mo, 17.06. 2:10 -
Mo, 17.06. 2:00 -
Mo, 17.06. 1:30 -
Mo, 17.06. 1:00 -
Mo, 17.06. 0:30 -
Mo, 17.06. 0:00 -
Link zu dieser Seite / Seite empfehlen

Das Wetter in ...